Time;durP1;ratioP1;P1;durP2;ratioP2;P2;SDS_P1;SDS_P2;PMS_P1;PMS_P2;Temp;Humidity;BMP_temperature;BMP_pressure;BME280_temperature;BME280_humidity;BME280_pressure;Samples;Min_cycle;Max_cycle;Signal;HPM_P1;HPM_P2
2024/01/01 00:01:22;;;;;;;109.60;66.97;;;;;;;3.47;78.68;100612.35;122752;1102;104322;-74
2024/01/01 00:03:53;;;;;;;108.40;64.63;;;;;;;3.46;79.23;100611.47;122851;1102;104300;-74
2024/01/01 00:06:25;;;;;;;111.45;64.85;;;;;;;3.44;79.44;100607.84;122726;1102;104348;-74
2024/01/01 00:08:56;;;;;;;103.55;61.25;;;;;;;3.44;79.71;100604.36;122871;1102;104310;-73
2024/01/01 00:11:28;;;;;;;107.73;62.90;;;;;;;3.40;79.01;100604.16;122833;1102;104335;-73
2024/01/01 00:13:59;;;;;;;101.20;60.77;;;;;;;3.37;79.13;100601.36;122678;1102;104392;-74
2024/01/01 00:16:31;;;;;;;110.93;68.67;;;;;;;3.38;79.38;100604.84;122826;1102;104281;-73
2024/01/01 00:19:03;;;;;;;115.27;68.27;;;;;;;3.37;79.70;100605.66;122867;1102;104226;-74
2024/01/01 00:21:34;;;;;;;110.37;62.70;;;;;;;3.35;80.04;100602.05;122865;1105;104372;-74
2024/01/01 00:24:05;;;;;;;103.57;61.23;;;;;;;3.36;79.52;100601.27;122772;1102;104284;-74
2024/01/01 00:26:37;;;;;;;98.80;57.93;;;;;;;3.35;79.61;100597.78;123042;1102;104278;-74
2024/01/01 00:29:09;;;;;;;101.63;59.10;;;;;;;3.37;78.83;100590.11;122825;1102;104371;-74
2024/01/01 00:31:42;;;;;;;106.20;59.25;;;;;;;3.35;79.86;100596.86;122800;1102;104280;-74
2024/01/01 00:34:14;;;;;;;98.75;56.75;;;;;;;3.32;79.17;100584.61;122785;1102;104333;-74
2024/01/01 00:36:45;;;;;;;111.65;61.35;;;;;;;3.30;79.31;100585.30;122770;1102;104335;-74
2024/01/01 00:39:17;;;;;;;104.93;62.93;;;;;;;3.28;79.28;100577.41;122973;1102;104322;-75
2024/01/01 00:41:48;;;;;;;98.63;55.70;;;;;;;3.28;79.50;100582.60;122793;1102;104283;-73
2024/01/01 00:44:20;;;;;;;94.10;55.07;;;;;;;3.27;79.18;100577.31;123017;1102;104360;-73
2024/01/01 00:46:51;;;;;;;89.80;51.73;;;;;;;3.26;80.32;100575.50;122760;1102;104285;-73
2024/01/01 00:49:22;;;;;;;89.83;52.03;;;;;;;3.24;79.85;100576.33;122799;1102;104348;-73
2024/01/01 00:51:53;;;;;;;84.80;49.60;;;;;;;3.23;79.63;100571.92;122746;1102;104355;-74
2024/01/01 00:54:28;;;;;;;79.63;47.43;;;;;;;3.22;80.55;100570.11;122860;1102;104281;-74
2024/01/01 00:56:59;;;;;;;86.60;48.63;;;;;;;3.22;80.08;100569.23;122701;1102;104373;-74
2024/01/01 00:59:30;;;;;;;80.55;46.95;;;;;;;3.19;79.75;100564.72;122760;1103;104274;-74
2024/01/01 01:02:02;;;;;;;82.67;47.77;;;;;;;3.18;79.88;100556.84;122780;1102;104331;-74
2024/01/01 01:04:33;;;;;;;87.65;50.00;;;;;;;3.17;79.66;100561.14;122767;1102;104265;-73
2024/01/01 01:07:05;;;;;;;94.13;59.30;;;;;;;3.16;80.28;100558.45;122776;1102;104834;-73
2024/01/01 01:09:36;;;;;;;101.30;65.30;;;;;;;3.15;80.75;100549.78;122712;1102;104284;-73
2024/01/01 01:12:08;;;;;;;106.60;65.60;;;;;;;3.14;79.45;100553.16;122697;1102;104341;-73
2024/01/01 01:14:40;;;;;;;100.53;64.63;;;;;;;3.12;80.81;100549.58;122768;1102;104725;-73
2024/01/01 01:17:11;;;;;;;96.10;59.70;;;;;;;3.08;80.26;100544.98;122803;1102;104419;-74
2024/01/01 01:19:42;;;;;;;101.53;62.57;;;;;;;3.04;80.33;100543.00;122799;1102;104283;-74
2024/01/01 01:22:13;;;;;;;106.60;63.37;;;;;;;3.00;79.69;100539.28;122844;1104;104770;-74
2024/01/01 01:24:45;;;;;;;133.40;79.33;;;;;;;2.99;79.99;100528.81;122888;1102;104252;-74
2024/01/01 01:27:16;;;;;;;146.60;84.77;;;;;;;2.98;80.12;100524.44;122792;1102;104401;-74
2024/01/01 01:29:48;;;;;;;166.03;96.07;;;;;;;2.96;80.42;100529.52;123001;1102;104306;-74
2024/01/01 01:32:19;;;;;;;152.47;90.23;;;;;;;2.90;79.97;100528.19;122908;1102;104698;-74
2024/01/01 01:34:51;;;;;;;148.93;89.00;;;;;;;2.83;80.04;100529.48;122757;1102;104307;-74
2024/01/01 01:37:22;;;;;;;145.20;85.67;;;;;;;2.83;79.85;100526.89;122773;1101;104361;-74
2024/01/01 01:39:53;;;;;;;127.07;74.80;;;;;;;2.84;80.49;100524.41;122783;1102;104380;-74
2024/01/01 01:42:25;;;;;;;120.70;69.97;;;;;;;2.82;79.82;100531.19;122767;1102;104280;-74
2024/01/01 01:44:56;;;;;;;124.17;71.17;;;;;;;2.81;80.12;100518.13;122759;1102;104318;-74
2024/01/01 01:47:29;;;;;;;114.30;70.53;;;;;;;2.83;80.38;100516.53;122807;1102;104709;-74
2024/01/01 01:50:00;;;;;;;125.73;73.30;;;;;;;2.83;80.20;100517.41;122951;1105;104296;-73
2024/01/01 01:52:32;;;;;;;122.40;70.27;;;;;;;2.78;80.17;100512.74;122794;1102;104313;-73
2024/01/01 01:55:04;;;;;;;120.30;68.55;;;;;;;2.75;79.87;100517.72;122678;1105;104370;-74
2024/01/01 01:57:38;;;;;;;117.30;67.33;;;;;;;2.68;80.17;100508.61;122831;1102;104781;-73
2024/01/01 02:00:11;;;;;;;113.35;64.45;;;;;;;2.67;80.80;100509.43;122811;1102;104339;-74
2024/01/01 02:02:45;;;;;;;111.13;64.70;;;;;;;2.67;80.77;100507.72;123076;1105;104357;-74
2024/01/01 02:05:17;;;;;;;115.10;63.50;;;;;;;2.68;80.48;100509.53;122722;1102;104374;-74
2024/01/01 02:07:48;;;;;;;123.30;66.05;;;;;;;2.67;80.88;100504.25;122707;1102;104305;-74
2024/01/01 02:10:19;;;;;;;122.20;65.35;;;;;;;2.64;80.29;100494.56;122834;1102;104302;-74
2024/01/01 02:12:51;;;;;;;118.77;66.97;;;;;;;2.63;80.65;100499.64;122772;1102;104283;-74
2024/01/01 02:15:22;;;;;;;120.87;66.50;;;;;;;2.63;80.26;100489.28;122705;1102;104255;-74
2024/01/01 02:17:54;;;;;;;104.37;60.63;;;;;;;2.60;79.96;100487.41;122732;1102;104331;-74
2024/01/01 02:20:25;;;;;;;98.93;55.20;;;;;;;2.58;80.41;100481.20;122731;1102;104374;-75
2024/01/01 02:22:58;;;;;;;86.70;49.50;;;;;;;2.56;80.57;100475.02;122735;1102;104284;-73
2024/01/01 02:25:29;;;;;;;78.65;45.25;;;;;;;2.55;80.99;100473.22;122699;1102;104255;-74
2024/01/01 02:28:00;;;;;;;75.93;42.87;;;;;;;2.55;80.95;100474.92;122692;1105;104431;-74
2024/01/01 02:30:32;;;;;;;75.10;41.55;;;;;;;2.51;81.46;100471.23;122666;1104;104341;-74
2024/01/01 02:33:08;;;;;;;80.27;43.23;;;;;;;2.51;80.84;100468.65;122635;1104;104351;-74
2024/01/01 02:35:39;;;;;;;68.43;39.70;;;;;;;2.49;80.90;100460.77;122689;1104;105655;-74
2024/01/01 02:38:11;;;;;;;73.63;40.57;;;;;;;2.46;81.06;100464.83;122683;1105;104476;-74
2024/01/01 02:40:42;;;;;;;69.93;40.10;;;;;;;2.44;80.76;100466.42;122659;1105;104389;-74
2024/01/01 02:43:13;;;;;;;72.20;40.83;;;;;;;2.41;81.24;100461.04;122706;1105;104355;-75
2024/01/01 02:45:45;;;;;;;70.75;39.50;;;;;;;2.42;80.89;100460.26;122744;1104;104808;-74
2024/01/01 02:48:16;;;;;;;73.13;41.30;;;;;;;2.40;81.83;100454.05;122670;1105;104261;-75
2024/01/01 02:50:47;;;;;;;74.83;43.33;;;;;;;2.34;81.08;100451.97;122686;1105;104290;-74
2024/01/01 02:53:18;;;;;;;78.87;45.07;;;;;;;2.23;80.86;100446.06;122644;1105;104345;-74
2024/01/01 02:55:50;;;;;;;77.57;42.77;;;;;;;2.10;81.02;100441.74;122647;1103;104335;-74
2024/01/01 02:58:21;;;;;;;78.53;42.93;;;;;;;2.02;81.40;100436.82;122673;1105;104293;-74
2024/01/01 03:00:53;;;;;;;69.13;40.30;;;;;;;1.97;80.99;100439.09;122710;1105;104280;-73
2024/01/01 03:03:24;;;;;;;74.85;42.65;;;;;;;1.98;80.59;100443.48;122665;1105;104725;-74
2024/01/01 03:05:55;;;;;;;75.57;43.07;;;;;;;1.95;81.41;100441.58;122710;1103;104239;-74
2024/01/01 03:08:27;;;;;;;74.83;40.63;;;;;;;1.96;81.23;100437.28;122815;1106;104309;-74
2024/01/01 03:10:59;;;;;;;73.37;40.67;;;;;;;1.94;81.43;100441.47;122642;1106;104351;-74
2024/01/01 03:13:30;;;;;;;66.75;38.00;;;;;;;2.01;81.99;100443.70;122807;1103;104258;-74
2024/01/01 03:16:03;;;;;;;71.10;39.87;;;;;;;2.11;81.88;100434.87;122674;1102;104658;-74
2024/01/01 03:18:34;;;;;;;70.00;39.67;;;;;;;2.22;81.99;100430.42;122674;1103;104251;-74
2024/01/01 03:21:06;;;;;;;70.75;38.75;;;;;;;2.31;81.85;100431.05;122714;1105;104370;-74
2024/01/01 03:23:38;;;;;;;70.83;39.97;;;;;;;2.38;81.83;100422.88;122803;1103;104255;-74
2024/01/01 03:26:09;;;;;;;74.23;40.63;;;;;;;2.44;81.63;100418.10;122890;1105;104258;-74
2024/01/01 03:28:40;;;;;;;71.87;40.80;;;;;;;2.50;81.74;100415.92;122644;1104;110891;-74
2024/01/01 03:31:12;;;;;;;75.93;41.13;;;;;;;2.54;82.05;100406.69;122673;1105;104313;-74
2024/01/01 03:33:45;;;;;;;67.45;38.50;;;;;;;2.54;82.10;100413.53;122706;1105;104389;-74
2024/01/01 03:36:17;;;;;;;68.20;37.40;;;;;;;2.54;81.88;100401.50;122768;1102;104350;-74
2024/01/01 03:38:48;;;;;;;66.77;38.20;;;;;;;2.54;82.00;100398.91;122716;1102;104367;-74
2024/01/01 03:41:19;;;;;;;62.30;35.45;;;;;;;2.57;81.77;100393.94;122717;1102;104453;-74
2024/01/01 03:43:50;;;;;;;63.13;35.50;;;;;;;2.62;82.15;100389.06;122738;1102;104254;-75
2024/01/01 03:46:22;;;;;;;64.67;35.60;;;;;;;2.63;81.89;100383.98;122681;1102;104303;-74
2024/01/01 03:48:53;;;;;;;58.20;34.90;;;;;;;2.65;82.05;100384.97;122649;1102;107555;-74
2024/01/01 03:51:24;;;;;;;58.60;33.50;;;;;;;2.65;82.29;100378.86;122679;1102;104358;-74
2024/01/01 03:53:56;;;;;;;57.90;32.97;;;;;;;2.64;82.23;100382.27;122692;1102;104360;-74
2024/01/01 03:56:28;;;;;;;57.63;32.70;;;;;;;2.62;82.09;100378.70;122721;1102;104284;-74
2024/01/01 03:58:59;;;;;;;58.03;32.63;;;;;;;2.63;81.56;100378.80;122685;1102;104393;-74
2024/01/01 04:01:31;;;;;;;52.93;30.40;;;;;;;2.62;82.38;100371.81;122624;1102;104687;-74
2024/01/01 04:04:04;;;;;;;59.50;31.70;;;;;;;2.59;82.42;100371.61;122676;1103;104335;-74
2024/01/01 04:06:36;;;;;;;55.47;32.10;;;;;;;2.58;82.32;100367.21;122747;1102;104255;-74
2024/01/01 04:09:07;;;;;;;58.00;31.17;;;;;;;2.57;82.28;100369.70;122674;1102;104769;-74
2024/01/01 04:11:39;;;;;;;56.13;31.87;;;;;;;2.50;82.06;100366.70;122656;1102;104211;-74
2024/01/01 04:14:11;;;;;;;56.17;31.20;;;;;;;2.48;82.05;100357.95;122653;1103;104386;-74
2024/01/01 04:16:43;;;;;;;53.13;29.50;;;;;;;2.43;82.33;100351.58;122714;1102;104375;-74
2024/01/01 04:19:14;;;;;;;56.67;31.93;;;;;;;2.40;82.42;100343.61;122681;1105;104363;-74
2024/01/01 04:21:45;;;;;;;54.67;30.07;;;;;;;2.39;82.52;100352.16;122880;1102;104663;-74
2024/01/01 04:24:16;;;;;;;54.27;29.77;;;;;;;2.38;82.71;100342.59;122732;1102;104453;-74
2024/01/01 04:26:48;;;;;;;52.63;30.10;;;;;;;2.35;82.48;100324.27;122675;1102;104264;-74
2024/01/01 04:29:19;;;;;;;57.10;31.70;;;;;;;2.36;81.92;100335.54;122657;1102;104734;-73
2024/01/01 04:31:50;;;;;;;52.57;29.70;;;;;;;2.34;82.11;100331.14;122699;1102;104290;-73
2024/01/01 04:34:22;;;;;;;58.70;31.80;;;;;;;2.33;82.08;100328.45;122739;1102;104358;-73
2024/01/01 04:36:53;;;;;;;55.63;29.50;;;;;;;2.31;82.09;100330.06;122776;1102;104335;-74
2024/01/01 04:39:24;;;;;;;55.85;30.40;;;;;;;2.32;82.21;100332.75;122800;1102;104363;-73
2024/01/01 04:41:56;;;;;;;55.67;30.53;;;;;;;2.36;82.46;100338.13;122674;1105;104259;-75
2024/01/01 04:44:27;;;;;;;55.95;30.70;;;;;;;2.32;82.37;100335.34;122642;1102;104284;-74
2024/01/01 04:46:58;;;;;;;52.97;30.20;;;;;;;2.32;82.36;100331.83;122712;1102;104286;-74
2024/01/01 04:49:29;;;;;;;55.37;29.80;;;;;;;2.34;82.53;100336.33;122658;1102;104358;-74
2024/01/01 04:52:01;;;;;;;52.97;28.93;;;;;;;2.36;82.77;100331.25;122626;1102;104759;-74
2024/01/01 04:54:33;;;;;;;51.03;28.17;;;;;;;2.34;81.93;100328.55;122710;1102;104203;-74
2024/01/01 04:57:05;;;;;;;52.37;29.00;;;;;;;2.29;82.48;100331.63;122703;1102;104252;-74
2024/01/01 04:59:36;;;;;;;50.57;29.37;;;;;;;2.21;82.10;100335.41;122700;1102;104338;-74
2024/01/01 05:02:08;;;;;;;49.30;28.77;;;;;;;2.18;82.41;100325.73;122673;1102;104409;-74
2024/01/01 05:04:39;;;;;;;50.55;27.60;;;;;;;2.18;82.78;100324.84;122638;1102;104297;-74
2024/01/01 05:07:10;;;;;;;51.33;28.23;;;;;;;2.14;83.41;100327.23;122706;1102;104284;-74
2024/01/01 05:09:44;;;;;;;51.77;28.97;;;;;;;2.17;83.13;100329.14;122695;1102;104341;-74
2024/01/01 05:12:17;;;;;;;47.48;26.73;;;;;;;2.20;82.98;100326.76;122667;1102;104406;-74
2024/01/01 05:14:48;;;;;;;51.00;27.27;;;;;;;2.24;83.01;100322.67;122770;1101;104341;-74
2024/01/01 05:17:20;;;;;;;48.60;25.75;;;;;;;2.27;82.96;100321.17;122774;1102;104360;-75
2024/01/01 05:19:52;;;;;;;45.43;25.97;;;;;;;2.29;83.12;100321.27;122677;1102;104367;-75
2024/01/01 05:22:23;;;;;;;48.33;26.97;;;;;;;2.30;83.16;100312.72;122710;1102;104252;-74
2024/01/01 05:24:54;;;;;;;47.27;25.97;;;;;;;2.32;82.61;100324.06;122671;1102;104287;-74
2024/01/01 05:27:26;;;;;;;49.13;26.23;;;;;;;2.33;83.31;100318.09;122691;1102;104476;-74
2024/01/01 05:29:57;;;;;;;45.33;25.00;;;;;;;2.32;82.91;100319.80;122622;1101;104376;-73
2024/01/01 05:32:28;;;;;;;49.17;25.40;;;;;;;2.32;83.38;100312.03;122723;1101;104278;-74
2024/01/01 05:34:59;;;;;;;46.00;24.13;;;;;;;2.32;83.39;100304.27;122625;1102;104328;-74
2024/01/01 05:37:31;;;;;;;44.37;24.13;;;;;;;2.31;83.34;100306.75;122694;1102;104259;-73
2024/01/01 05:40:02;;;;;;;47.10;25.23;;;;;;;2.30;83.34;100303.24;122703;1102;104377;-74
2024/01/01 05:42:33;;;;;;;42.80;24.30;;;;;;;2.32;83.29;100300.76;122689;1102;104344;-74
2024/01/01 05:45:07;;;;;;;48.17;24.70;;;;;;;2.31;83.58;100286.04;122708;1102;104233;-74
2024/01/01 05:47:38;;;;;;;48.07;27.03;;;;;;;2.32;83.97;100287.81;122739;1102;104262;-74
2024/01/01 05:50:10;;;;;;;46.77;25.90;;;;;;;2.33;84.09;100287.02;122688;1102;104201;-74
2024/01/01 05:52:41;;;;;;;45.25;25.80;;;;;;;2.34;83.05;100283.65;122918;1102;104360;-74
2024/01/01 05:55:13;;;;;;;47.20;25.50;;;;;;;2.35;83.35;100282.83;122984;1102;104399;-73
2024/01/01 05:57:44;;;;;;;47.10;24.00;;;;;;;2.37;83.63;100286.44;122713;1102;104284;-73
2024/01/01 06:00:18;;;;;;;45.50;25.40;;;;;;;2.38;83.11;100283.03;122654;1102;104203;-74
2024/01/01 06:02:50;;;;;;;45.60;25.47;;;;;;;2.41;83.28;100292.70;122787;1102;104665;-74
2024/01/01 06:05:21;;;;;;;46.20;24.33;;;;;;;2.44;82.86;100295.49;122650;1102;104399;-74
2024/01/01 06:07:53;;;;;;;43.70;23.77;;;;;;;2.47;83.41;100298.28;122650;1106;104261;-74
2024/01/01 06:10:24;;;;;;;42.80;23.97;;;;;;;2.51;83.71;100287.33;122658;1103;104302;-74
2024/01/01 06:12:56;;;;;;;40.67;22.53;;;;;;;2.55;83.47;100270.28;122653;1104;104373;-74
2024/01/01 06:15:28;;;;;;;40.53;22.83;;;;;;;2.58;83.98;100273.06;122670;1104;104313;-74
2024/01/01 06:17:59;;;;;;;43.10;23.50;;;;;;;2.59;84.04;100267.98;122685;1104;104657;-74
2024/01/01 06:20:30;;;;;;;43.00;23.37;;;;;;;2.61;83.51;100268.97;122646;1105;104739;-74
2024/01/01 06:23:02;;;;;;;45.10;23.90;;;;;;;2.63;83.56;100263.88;122665;1103;104255;-74
2024/01/01 06:25:33;;;;;;;45.17;24.90;;;;;;;2.66;83.61;100256.31;122647;1105;104437;-74
2024/01/01 06:28:05;;;;;;;43.33;24.30;;;;;;;2.70;84.21;100256.59;122670;1102;104255;-74
2024/01/01 06:30:36;;;;;;;44.60;24.60;;;;;;;2.78;83.92;100256.20;122584;1102;104289;-74
2024/01/01 06:33:08;;;;;;;44.03;23.63;;;;;;;2.86;84.41;100249.79;122605;1102;104377;-74
2024/01/01 06:35:39;;;;;;;41.10;22.80;;;;;;;2.93;84.31;100251.05;122762;1102;104258;-74
2024/01/01 06:38:11;;;;;;;40.97;22.10;;;;;;;3.00;83.75;100246.35;122647;1102;104313;-74
2024/01/01 06:40:43;;;;;;;40.67;22.10;;;;;;;3.07;83.96;100247.64;122699;1105;104210;-74
2024/01/01 06:43:15;;;;;;;37.63;21.77;;;;;;;3.14;84.23;100257.57;122655;1102;104390;-74
2024/01/01 06:45:46;;;;;;;39.77;22.33;;;;;;;3.22;84.41;100264.11;122738;1102;104284;-75
2024/01/01 06:48:17;;;;;;;39.03;21.40;;;;;;;3.31;84.40;100258.60;122825;1102;104322;-74
2024/01/01 06:50:49;;;;;;;39.40;21.17;;;;;;;3.34;85.11;100263.98;122719;1102;104309;-75
2024/01/01 06:53:20;;;;;;;40.03;23.07;;;;;;;3.38;84.20;100253.00;122659;1102;104364;-75
2024/01/01 06:55:51;;;;;;;41.53;22.87;;;;;;;3.42;84.37;100248.88;122813;1102;104351;-74
2024/01/01 06:58:22;;;;;;;40.73;22.90;;;;;;;3.45;84.36;100253.38;122796;1102;104350;-74
2024/01/01 07:00:54;;;;;;;40.23;23.80;;;;;;;3.51;84.08;100259.81;122674;1102;104281;-74
2024/01/01 07:03:25;;;;;;;40.20;22.97;;;;;;;3.56;84.79;100248.00;122698;1102;104402;-75
2024/01/01 07:05:56;;;;;;;39.83;22.67;;;;;;;3.60;84.72;100247.39;122792;1102;104233;-74
2024/01/01 07:08:29;;;;;;;42.40;23.10;;;;;;;3.66;84.83;100238.17;122709;1102;104355;-74
2024/01/01 07:11:00;;;;;;;39.13;22.40;;;;;;;3.72;84.37;100242.01;122946;1102;104322;-74
2024/01/01 07:13:31;;;;;;;40.20;22.23;;;;;;;3.76;84.32;100236.20;122718;1102;104281;-74
2024/01/01 07:16:02;;;;;;;38.50;21.93;;;;;;;3.82;84.02;100227.89;122728;1102;104297;-75
2024/01/01 07:18:34;;;;;;;40.17;22.53;;;;;;;3.88;84.17;100235.12;122682;1103;104312;-74
2024/01/01 07:21:06;;;;;;;37.37;22.00;;;;;;;3.94;84.57;100231.20;122619;1102;104376;-74
2024/01/01 07:23:37;;;;;;;37.07;21.17;;;;;;;3.99;84.62;100231.47;122756;1102;104667;-74
2024/01/01 07:26:10;;;;;;;39.33;21.70;;;;;;;4.05;84.23;100220.52;122699;1102;104335;-74
2024/01/01 07:28:42;;;;;;;38.00;20.97;;;;;;;4.12;84.50;100223.55;122747;1102;104277;-74
2024/01/01 07:31:14;;;;;;;35.90;20.53;;;;;;;4.19;84.45;100229.10;122744;1105;104284;-74
2024/01/01 07:33:45;;;;;;;35.63;20.17;;;;;;;4.26;84.40;100221.74;122692;1103;104342;-74
2024/01/01 07:36:16;;;;;;;35.80;19.97;;;;;;;4.29;84.75;100221.91;122678;1105;104469;-75
2024/01/01 07:38:48;;;;;;;39.33;21.37;;;;;;;4.33;84.68;100220.37;122678;1102;104702;-75
2024/01/01 07:41:19;;;;;;;37.73;20.57;;;;;;;4.35;84.28;100226.57;122680;1102;104733;-75
2024/01/01 07:43:50;;;;;;;36.40;20.20;;;;;;;4.38;84.58;100220.63;122688;1103;104309;-74
2024/01/01 07:46:22;;;;;;;36.35;19.70;;;;;;;4.38;84.53;100220.63;122652;1102;104297;-74
2024/01/01 07:48:55;;;;;;;36.10;20.17;;;;;;;4.38;84.32;100218.95;122617;1102;104351;-74
2024/01/01 07:51:26;;;;;;;39.37;20.83;;;;;;;4.39;84.29;100227.63;122682;1102;104722;-74
2024/01/01 07:53:57;;;;;;;34.53;18.97;;;;;;;4.42;85.15;100230.40;122686;1101;110990;-75
2024/01/01 07:56:29;;;;;;;34.90;19.95;;;;;;;4.45;84.57;100226.26;122747;1102;104280;-74
2024/01/01 07:59:01;;;;;;;39.17;19.47;;;;;;;4.46;84.54;100233.25;122905;1102;104697;-74
2024/01/01 08:01:32;;;;;;;32.87;18.50;;;;;;;4.47;84.97;100239.34;122659;1102;104341;-74
2024/01/01 08:04:03;;;;;;;33.43;18.37;;;;;;;4.48;84.73;100234.22;122770;1102;104338;-74
2024/01/01 08:06:34;;;;;;;32.43;17.37;;;;;;;4.47;84.88;100235.05;122703;1102;104277;-75
2024/01/01 08:09:06;;;;;;;30.07;16.60;;;;;;;4.45;85.02;100231.45;122691;1102;104252;-75
2024/01/01 08:11:37;;;;;;;33.47;18.40;;;;;;;4.45;85.22;100225.38;122692;1102;104306;-74
2024/01/01 08:14:08;;;;;;;33.80;18.00;;;;;;;4.42;85.18;100220.89;122726;1102;104252;-74
2024/01/01 08:16:40;;;;;;;33.10;17.65;;;;;;;4.44;85.40;100220.98;122708;1102;104354;-73
2024/01/01 08:19:11;;;;;;;33.03;18.40;;;;;;;4.47;85.68;100227.27;122692;1102;104267;-74
2024/01/01 08:21:42;;;;;;;33.15;18.30;;;;;;;4.47;85.70;100226.34;122753;1102;104252;-74
2024/01/01 08:24:13;;;;;;;31.00;17.73;;;;;;;4.50;85.74;100224.83;122700;1102;104485;-73
2024/01/01 08:26:45;;;;;;;32.93;18.47;;;;;;;4.55;85.69;100235.48;122680;1102;104316;-73
2024/01/01 08:29:16;;;;;;;31.83;17.60;;;;;;;4.59;85.35;100231.34;122746;1102;104281;-73
2024/01/01 08:31:47;;;;;;;33.33;18.60;;;;;;;4.62;85.36;100223.72;122697;1102;104261;-74
2024/01/01 08:34:19;;;;;;;29.80;17.17;;;;;;;4.67;85.22;100230.96;122724;1102;104258;-74
2024/01/01 08:36:51;;;;;;;31.73;18.30;;;;;;;4.71;85.04;100225.94;122651;1102;104318;-74
2024/01/01 08:39:24;;;;;;;34.30;18.07;;;;;;;4.75;85.98;100214.88;122637;1102;104387;-74
2024/01/01 08:41:55;;;;;;;32.37;17.90;;;;;;;4.76;85.50;100206.27;122767;1102;104357;-74
2024/01/01 08:44:26;;;;;;;29.67;15.83;;;;;;;4.79;85.77;100211.64;122720;1101;104363;-75
2024/01/01 08:46:58;;;;;;;30.67;16.63;;;;;;;4.75;85.84;100207.07;122914;1102;104281;-75
2024/01/01 08:49:29;;;;;;;31.90;16.80;;;;;;;4.69;85.74;100199.86;122634;1102;104227;-75
2024/01/01 08:52:00;;;;;;;30.80;15.23;;;;;;;4.67;85.93;100193.66;122675;1102;104698;-75
2024/01/01 08:54:32;;;;;;;31.60;16.03;;;;;;;4.71;85.72;100190.43;122723;1102;104294;-75
2024/01/01 08:57:04;;;;;;;29.07;15.40;;;;;;;4.73;86.20;100187.91;122722;1102;104281;-74
2024/01/01 08:59:35;;;;;;;30.00;16.13;;;;;;;4.76;86.09;100186.36;122684;1102;104255;-74
2024/01/01 09:02:06;;;;;;;30.80;16.03;;;;;;;4.82;86.43;100184.09;122679;1102;104450;-74
2024/01/01 09:04:38;;;;;;;30.70;15.50;;;;;;;4.85;86.04;100180.77;122665;1102;104399;-74
2024/01/01 09:07:10;;;;;;;33.37;15.67;;;;;;;4.90;86.46;100176.70;122667;1102;104281;-73
2024/01/01 09:09:41;;;;;;;30.05;15.00;;;;;;;4.95;86.10;100174.34;122693;1102;104293;-74
2024/01/01 09:12:13;;;;;;;28.20;14.30;;;;;;;4.95;86.59;100170.03;122896;1102;104239;-74
2024/01/01 09:14:44;;;;;;;30.63;15.00;;;;;;;4.98;86.44;100162.39;122687;1102;104303;-74
2024/01/01 09:17:15;;;;;;;29.60;13.93;;;;;;;5.02;86.32;100156.55;122639;1105;104389;-73
2024/01/01 09:19:48;;;;;;;29.83;13.90;;;;;;;5.06;86.37;100149.80;122919;1102;104252;-75
2024/01/01 09:22:20;;;;;;;29.07;14.37;;;;;;;5.08;85.93;100142.06;122726;1102;104251;-75
2024/01/01 09:24:51;;;;;;;29.13;14.43;;;;;;;5.11;86.45;100132.73;122696;1102;104208;-75
2024/01/01 09:27:22;;;;;;;29.80;14.43;;;;;;;5.10;86.62;100130.06;122800;1102;104433;-73
2024/01/01 09:29:54;;;;;;;31.95;15.00;;;;;;;5.10;86.78;100130.06;122752;1102;104313;-74
2024/01/01 09:32:25;;;;;;;29.10;14.23;;;;;;;5.08;86.92;100119.58;122690;1102;104219;-75
2024/01/01 09:34:57;;;;;;;28.87;13.27;;;;;;;5.07;86.94;100112.58;122657;1103;104341;-74
2024/01/01 09:37:28;;;;;;;31.13;14.93;;;;;;;5.10;86.74;100111.86;122720;1102;104251;-74
2024/01/01 09:39:59;;;;;;;28.53;12.37;;;;;;;5.07;87.77;100103.89;122787;1104;104414;-75
2024/01/01 09:42:31;;;;;;;29.67;13.63;;;;;;;5.06;87.16;100104.70;122714;1102;104290;-74
2024/01/01 09:45:02;;;;;;;31.30;13.80;;;;;;;5.04;87.59;100097.70;122725;1102;104330;-74
2024/01/01 09:47:35;;;;;;;31.50;14.23;;;;;;;5.04;87.82;100099.42;122655;1102;104425;-74
2024/01/01 09:50:08;;;;;;;29.77;14.57;;;;;;;5.02;87.68;100099.34;122772;1102;104258;-74
2024/01/01 09:52:40;;;;;;;33.83;14.87;;;;;;;5.06;87.85;100094.30;122732;1102;104389;-74
2024/01/01 09:55:12;;;;;;;32.67;14.77;;;;;;;5.04;88.08;100094.22;122636;1101;104339;-74
2024/01/01 09:57:43;;;;;;;32.10;14.43;;;;;;;5.06;88.46;100083.89;122747;1102;104380;-75
2024/01/01 10:00:24;;;;;;;31.67;14.60;;;;;;;5.10;88.06;100071.13;122762;1102;104280;-74
2024/01/01 10:03:10;;;;;;;29.63;13.30;;;;;;;5.15;88.43;100066.16;122723;1102;104313;-74
2024/01/01 10:05:44;;;;;;;35.10;15.63;;;;;;;5.21;88.50;100064.74;122725;1102;104364;-75
2024/01/01 10:08:16;;;;;;;32.58;14.58;;;;;;;5.28;88.42;100065.05;122844;1102;104384;-74
2024/01/01 10:10:47;;;;;;;34.07;14.90;;;;;;;5.35;88.20;100062.83;122714;1102;104366;-74
2024/01/01 10:13:19;;;;;;;32.90;15.40;;;;;;;5.39;88.22;100062.18;122695;1102;104255;-74
2024/01/01 10:15:57;;;;;;;31.73;14.67;;;;;;;5.46;88.32;100058.16;122681;1102;104300;-74
2024/01/01 10:18:28;;;;;;;30.13;14.83;;;;;;;5.54;88.26;100048.13;122723;1102;104386;-74
2024/01/01 10:21:11;;;;;;;33.47;15.97;;;;;;;5.60;88.27;100048.42;122797;1102;104319;-74
2024/01/01 10:23:43;;;;;;;34.73;15.90;;;;;;;5.68;88.08;100049.67;122736;1102;104290;-74
2024/01/01 10:26:14;;;;;;;34.37;16.10;;;;;;;5.73;88.27;100050.81;122645;1103;104342;-74
2024/01/01 10:28:47;;;;;;;32.00;15.33;;;;;;;5.80;88.79;100056.28;122874;1102;104281;-74
2024/01/01 10:31:18;;;;;;;31.40;15.90;;;;;;;5.87;88.68;100053.16;122665;1102;104258;-74
2024/01/01 10:33:51;;;;;;;35.40;16.83;;;;;;;5.93;88.54;100048.23;122705;1105;104418;-74
2024/01/01 10:36:23;;;;;;;33.43;16.47;;;;;;;6.00;88.71;100052.05;122808;1101;104329;-73
2024/01/01 10:38:56;;;;;;;32.23;16.27;;;;;;;6.05;88.48;100040.16;122684;1102;104326;-74
2024/01/01 10:41:27;;;;;;;31.80;15.75;;;;;;;6.08;88.74;100033.36;123097;1102;104315;-73
2024/01/01 10:44:00;;;;;;;34.90;17.03;;;;;;;6.09;88.59;100027.34;122741;1102;104402;-74
2024/01/01 10:46:34;;;;;;;35.50;16.80;;;;;;;6.11;88.52;100023.08;122685;1103;104339;-73
2024/01/01 10:49:11;;;;;;;34.00;16.53;;;;;;;6.15;88.56;100018.02;122784;1102;104422;-74
2024/01/01 10:51:54;;;;;;;34.00;16.75;;;;;;;6.18;88.54;100019.03;122654;1105;104384;-74
2024/01/01 10:54:47;;;;;;;37.47;16.80;;;;;;;6.20;88.42;100012.20;122711;1103;104382;-74
2024/01/01 10:57:39;;;;;;;32.27;16.23;;;;;;;6.21;88.72;100007.88;122692;1102;104773;-74
2024/01/01 11:00:19;;;;;;;36.13;17.97;;;;;;;6.19;88.54;99997.38;122613;1102;104572;-74
2024/01/01 11:02:51;;;;;;;35.67;17.77;;;;;;;6.21;88.62;99990.52;122543;1102;104290;-74
2024/01/01 11:05:33;;;;;;;35.95;16.90;;;;;;;6.22;88.72;99984.49;122686;1102;105642;-74
2024/01/01 11:08:05;;;;;;;35.03;16.77;;;;;;;6.24;88.52;99982.84;122786;1102;104261;-73
2024/01/01 11:10:42;;;;;;;36.15;18.55;;;;;;;6.23;88.76;99986.29;122711;1102;104306;-74
2024/01/01 11:13:34;;;;;;;37.53;18.50;;;;;;;6.25;88.55;99978.54;122746;1102;104342;-73
2024/01/01 11:16:06;;;;;;;40.03;18.73;;;;;;;6.26;88.95;99969.87;122698;1102;104393;-74
2024/01/01 11:18:39;;;;;;;39.90;18.53;;;;;;;6.28;88.68;99974.34;122636;1102;104313;-73
2024/01/01 11:21:10;;;;;;;38.57;19.23;;;;;;;6.29;88.83;99956.98;122636;1102;104734;-73